PWSweather.com
Personal Weather Stations
Station Observations
KAZSIERR7
Canyon De Flores, Sierra Vista, AZ 85650

Canyon De FloresSierra Vista, AZ 85650

Lat: 31.5, Lon: -110.26

Elevation: 4645

Station Type: LaCrosse WS-3610 & Boltek Lightning Detector

http://www.lightningring.com/weather/

High Low Average
Temperature 95.8°F35.4°C 65.5°F18.6°C 79.6°F26.4°C
Dew Point 62.5°F16.9°C 45.5°F7.5°C 54.6°F12.6°C
Winds 7.7 mph 12.4 kmh Calm Calm 1.0 mph SSW1.6 kmh SSW
Wind Gusts 27.2 mph43.8 kmh -- 4.0 mph6.4 kmh
Humidity 68% 21% 45%
Pressure 30.17 in1021.7 mb 30.04 in1017.3 mb -
Precipitation 0.00 in0.0 mm - -
Hour Temp Dew Point Humidity Winds Wind Gusts Pressure Precip Precip Rate Daily Precip Total
12:00 AM 70.5°F21.4°C 58.5°F14.7°C 66% Calm Calm -- 30.13 in1020.3 mb 0.00 in0.0 mm 0.00 in0.0 mm 0.00 in0.0 mm
12:05 AM 70.3°F21.3°C 58.3°F14.6°C 66% Calm Calm -- 30.13 in1020.3 mb 0.00 in0.0 mm 0.00 in0.0 mm 0.00 in0.0 mm
12:10 AM 70.0°F21.1°C 57.9°F14.4°C 66% Calm Calm -- 30.13 in1020.3 mb 0.00 in0.0 mm 0.00 in0.0 mm 0.00 in0.0 mm
12:15 AM 69.8°F21.0°C 57.4°F14.1°C 65% Calm Calm -- 30.13 in1020.3 mb 0.00 in0.0 mm 0.00 in0.0 mm 0.00 in0.0 mm
12:21 AM 69.6°F20.9°C 57.2°F14.0°C 64% Calm Calm -- 30.13 in1020.3 mb 0.00 in0.0 mm 0.00 in0.0 mm 0.00 in0.0 mm
12:26 AM 69.6°F20.9°C 57.2°F14.0°C 63% Calm Calm -- 30.13 in1020.3 mb 0.00 in0.0 mm 0.00 in0.0 mm 0.00 in0.0 mm
12:31 AM 69.4°F20.8°C 56.7°F13.7°C 64% Calm Calm -- 30.13 in1020.3 mb 0.00 in0.0 mm 0.00 in0.0 mm 0.00 in0.0 mm
12:36 AM 69.1°F20.6°C 56.7°F13.7°C 65% Calm Calm -- 30.13 in1020.3 mb 0.00 in0.0 mm 0.00 in0.0 mm 0.00 in0.0 mm
12:42 AM 68.7°F20.4°C 56.3°F13.5°C 65% Calm Calm -- 30.13 in1020.3 mb 0.00 in0.0 mm 0.00 in0.0 mm 0.00 in0.0 mm
12:47 AM 68.5°F20.3°C 56.1°F13.4°C 65% Calm Calm -- 30.13 in1020.3 mb 0.00 in0.0 mm 0.00 in0.0 mm 0.00 in0.0 mm
12:52 AM 68.5°F20.3°C 56.1°F13.4°C 64% Calm Calm -- 30.12 in1020.0 mb 0.00 in0.0 mm 0.00 in0.0 mm 0.00 in0.0 mm
12:58 AM 68.7°F20.4°C 55.6°F13.1°C 63% Calm Calm -- 30.12 in1020.0 mb 0.00 in0.0 mm 0.00 in0.0 mm 0.00 in0.0 mm
01:03 AM 69.1°F20.6°C 55.4°F13.0°C 62% Calm Calm -- 30.12 in1020.0 mb 0.00 in0.0 mm 0.00 in0.0 mm 0.00 in0.0 mm
01:08 AM 68.9°F20.5°C 55.8°F13.2°C 63% Calm Calm -- 30.12 in1020.0 mb 0.00 in0.0 mm 0.00 in0.0 mm 0.00 in0.0 mm
01:13 AM 68.7°F20.4°C 55.0°F12.8°C 62% Calm Calm -- 30.13 in1020.3 mb 0.00 in0.0 mm 0.00 in0.0 mm 0.00 in0.0 mm
01:19 AM 68.7°F20.4°C 55.0°F12.8°C 62% Calm Calm -- 30.12 in1020.0 mb 0.00 in0.0 mm 0.00 in0.0 mm 0.00 in0.0 mm
01:24 AM 68.7°F20.4°C 55.0°F12.8°C 62% Calm Calm -- 30.12 in1020.0 mb 0.00 in0.0 mm 0.00 in0.0 mm 0.00 in0.0 mm
01:29 AM 68.5°F20.3°C 55.4°F13.0°C 62% Calm Calm -- 30.12 in1020.0 mb 0.00 in0.0 mm 0.00 in0.0 mm 0.00 in0.0 mm
01:34 AM 68.5°F20.3°C 55.4°F13.0°C 62% Calm Calm -- 30.12 in1020.0 mb 0.00 in0.0 mm 0.00 in0.0 mm 0.00 in0.0 mm
01:40 AM 68.5°F20.3°C 55.4°F13.0°C 62% Calm Calm -- 30.12 in1020.0 mb 0.00 in0.0 mm 0.00 in0.0 mm 0.00 in0.0 mm
01:45 AM 68.7°F20.4°C 54.7°F12.6°C 61% Calm Calm -- 30.12 in1020.0 mb 0.00 in0.0 mm 0.00 in0.0 mm 0.00 in0.0 mm
01:50 AM 68.7°F20.4°C 54.7°F12.6°C 62% Calm Calm -- 30.12 in1020.0 mb 0.00 in0.0 mm 0.00 in0.0 mm 0.00 in0.0 mm
01:55 AM 68.2°F20.1°C 54.5°F12.5°C 62% Calm Calm -- 30.12 in1020.0 mb 0.00 in0.0 mm 0.00 in0.0 mm 0.00 in0.0 mm
02:01 AM 68.0°F20.0°C 54.3°F12.4°C 63% Calm Calm -- 30.12 in1020.0 mb 0.00 in0.0 mm 0.00 in0.0 mm 0.00 in0.0 mm
02:06 AM 67.8°F19.9°C 54.7°F12.6°C 63% Calm Calm -- 30.12 in1020.0 mb 0.00 in0.0 mm 0.00 in0.0 mm 0.00 in0.0 mm
02:11 AM 67.6°F19.8°C 54.5°F12.5°C 63% Calm Calm -- 30.12 in1020.0 mb 0.00 in0.0 mm 0.00 in0.0 mm 0.00 in0.0 mm
02:16 AM 67.5°F19.7°C 54.7°F12.6°C 64% Calm Calm -- 30.12 in1020.0 mb 0.00 in0.0 mm 0.00 in0.0 mm 0.00 in0.0 mm
02:22 AM 67.5°F19.7°C 54.7°F12.6°C 64% Calm Calm -- 30.12 in1020.0 mb 0.00 in0.0 mm 0.00 in0.0 mm 0.00 in0.0 mm
02:27 AM 67.6°F19.8°C 54.5°F12.5°C 63% Calm Calm -- 30.12 in1020.0 mb 0.00 in0.0 mm 0.00 in0.0 mm 0.00 in0.0 mm
02:32 AM 67.6°F19.8°C 54.5°F12.5°C 63% Calm Calm -- 30.12 in1020.0 mb 0.00 in0.0 mm 0.00 in0.0 mm 0.00 in0.0 mm
02:37 AM 67.6°F19.8°C 54.5°F12.5°C 62% Calm Calm -- 30.12 in1020.0 mb 0.00 in0.0 mm 0.00 in0.0 mm 0.00 in0.0 mm
02:42 AM 67.8°F19.9°C 54.1°F12.3°C 62% Calm Calm -- 30.12 in1020.0 mb 0.00 in0.0 mm 0.00 in0.0 mm 0.00 in0.0 mm
02:48 AM 67.6°F19.8°C 54.0°F12.2°C 62% Calm Calm -- 30.13 in1020.3 mb 0.00 in0.0 mm 0.00 in0.0 mm 0.00 in0.0 mm
02:53 AM 67.8°F19.9°C 54.1°F12.3°C 62% Calm Calm -- 30.12 in1020.0 mb 0.00 in0.0 mm 0.00 in0.0 mm 0.00 in0.0 mm
02:58 AM 67.8°F19.9°C 54.1°F12.3°C 61% Calm Calm -- 30.12 in1020.0 mb 0.00 in0.0 mm 0.00 in0.0 mm 0.00 in0.0 mm
03:03 AM 67.8°F19.9°C 54.1°F12.3°C 61% Calm Calm -- 30.12 in1020.0 mb 0.00 in0.0 mm 0.00 in0.0 mm 0.00 in0.0 mm
03:09 AM 67.6°F19.8°C 54.0°F12.2°C 62% Calm Calm -- 30.12 in1020.0 mb 0.00 in0.0 mm 0.00 in0.0 mm 0.00 in0.0 mm
03:14 AM 67.3°F19.6°C 54.1°F12.3°C 63% Calm Calm -- 30.12 in1020.0 mb 0.00 in0.0 mm 0.00 in0.0 mm 0.00 in0.0 mm
03:19 AM 66.9°F19.4°C 53.8°F12.1°C 63% Calm Calm -- 30.12 in1020.0 mb 0.00 in0.0 mm 0.00 in0.0 mm 0.00 in0.0 mm
03:24 AM 66.9°F19.4°C 53.8°F12.1°C 63% Calm Calm -- 30.12 in1020.0 mb 0.00 in0.0 mm 0.00 in0.0 mm 0.00 in0.0 mm
03:30 AM 66.7°F19.3°C 53.6°F12.0°C 63% Calm Calm -- 30.12 in1020.0 mb 0.00 in0.0 mm 0.00 in0.0 mm 0.00 in0.0 mm
03:35 AM 66.9°F19.4°C 53.8°F12.1°C 63% Calm Calm -- 30.12 in1020.0 mb 0.00 in0.0 mm 0.00 in0.0 mm 0.00 in0.0 mm
03:40 AM 67.1°F19.5°C 53.6°F12.0°C 62% Calm Calm -- 30.12 in1020.0 mb 0.00 in0.0 mm 0.00 in0.0 mm 0.00 in0.0 mm
03:46 AM 67.1°F19.5°C 53.6°F12.0°C 62% Calm Calm -- 30.12 in1020.0 mb 0.00 in0.0 mm 0.00 in0.0 mm 0.00 in0.0 mm
03:51 AM 66.9°F19.4°C 53.8°F12.1°C 63% Calm Calm -- 30.13 in1020.3 mb 0.00 in0.0 mm 0.00 in0.0 mm 0.00 in0.0 mm
03:56 AM 66.9°F19.4°C 53.8°F12.1°C 64% Calm Calm -- 30.12 in1020.0 mb 0.00 in0.0 mm 0.00 in0.0 mm 0.00 in0.0 mm
04:01 AM 66.9°F19.4°C 53.8°F12.1°C 65% Calm Calm -- 30.12 in1020.0 mb 0.00 in0.0 mm 0.00 in0.0 mm 0.00 in0.0 mm
04:06 AM 66.6°F19.2°C 54.3°F12.4°C 65% Calm Calm -- 30.12 in1020.0 mb 0.00 in0.0 mm 0.00 in0.0 mm 0.00 in0.0 mm
04:12 AM 66.6°F19.2°C 54.3°F12.4°C 66% Calm Calm -- 30.12 in1020.0 mb 0.00 in0.0 mm 0.00 in0.0 mm 0.00 in0.0 mm
04:17 AM 66.0°F18.9°C 54.7°F12.6°C 67% Calm Calm -- 30.12 in1020.0 mb 0.00 in0.0 mm 0.00 in0.0 mm 0.00 in0.0 mm
04:22 AM 66.0°F18.9°C 54.7°F12.6°C 67% Calm Calm -- 30.12 in1020.0 mb 0.00 in0.0 mm 0.00 in0.0 mm 0.00 in0.0 mm
04:27 AM 65.8°F18.8°C 54.9°F12.7°C 68% Calm Calm -- 30.13 in1020.3 mb 0.00 in0.0 mm 0.00 in0.0 mm 0.00 in0.0 mm
04:33 AM 65.5°F18.6°C 54.5°F12.5°C 68% Calm Calm -- 30.13 in1020.3 mb 0.00 in0.0 mm 0.00 in0.0 mm 0.00 in0.0 mm
04:38 AM 65.5°F18.6°C 54.5°F12.5°C 67% Calm Calm -- 30.13 in1020.3 mb 0.00 in0.0 mm 0.00 in0.0 mm 0.00 in0.0 mm
04:43 AM 65.5°F18.6°C 54.5°F12.5°C 66% Calm Calm -- 30.13 in1020.3 mb 0.00 in0.0 mm 0.00 in0.0 mm 0.00 in0.0 mm
04:48 AM 65.5°F18.6°C 54.5°F12.5°C 66% Calm Calm -- 30.13 in1020.3 mb 0.00 in0.0 mm 0.00 in0.0 mm 0.00 in0.0 mm
04:54 AM 65.8°F18.8°C 54.5°F12.5°C 67% Calm Calm -- 30.13 in1020.3 mb 0.00 in0.0 mm 0.00 in0.0 mm 0.00 in0.0 mm
04:59 AM 65.8°F18.8°C 54.5°F12.5°C 67% Calm Calm -- 30.13 in1020.3 mb 0.00 in0.0 mm 0.00 in0.0 mm 0.00 in0.0 mm
05:04 AM 65.8°F18.8°C 54.5°F12.5°C 67% Calm Calm -- 30.13 in1020.3 mb 0.00 in0.0 mm 0.00 in0.0 mm 0.00 in0.0 mm
05:09 AM 66.0°F18.9°C 54.7°F12.6°C 67% Calm Calm -- 30.13 in1020.3 mb 0.00 in0.0 mm 0.00 in0.0 mm 0.00 in0.0 mm
05:15 AM 66.6°F19.2°C 54.3°F12.4°C 65% Calm Calm -- 30.13 in1020.3 mb 0.00 in0.0 mm 0.00 in0.0 mm 0.00 in0.0 mm
05:20 AM 67.1°F19.5°C 54.3°F12.4°C 64% Calm Calm -- 30.14 in1020.7 mb 0.00 in0.0 mm 0.00 in0.0 mm 0.00 in0.0 mm
05:25 AM 66.7°F19.3°C 54.1°F12.3°C 64% Calm Calm -- 30.14 in1020.7 mb 0.00 in0.0 mm 0.00 in0.0 mm 0.00 in0.0 mm
05:30 AM 66.2°F19.0°C 54.3°F12.4°C 66% Calm Calm -- 30.14 in1020.7 mb 0.00 in0.0 mm 0.00 in0.0 mm 0.00 in0.0 mm
05:36 AM 66.0°F18.9°C 54.1°F12.3°C 66% Calm Calm -- 30.14 in1020.7 mb 0.00 in0.0 mm 0.00 in0.0 mm 0.00 in0.0 mm
05:41 AM 66.4°F19.1°C 54.5°F12.5°C 66% Calm Calm -- 30.14 in1020.7 mb 0.00 in0.0 mm 0.00 in0.0 mm 0.00 in0.0 mm
05:46 AM 66.6°F19.2°C 54.7°F12.6°C 66% Calm Calm -- 30.14 in1020.7 mb 0.00 in0.0 mm 0.00 in0.0 mm 0.00 in0.0 mm
05:51 AM 66.9°F19.4°C 55.0°F12.8°C 66% Calm Calm -- 30.14 in1020.7 mb 0.00 in0.0 mm 0.00 in0.0 mm 0.00 in0.0 mm
05:57 AM 67.5°F19.7°C 55.2°F12.9°C 65% Calm Calm -- 30.15 in1021.0 mb 0.00 in0.0 mm 0.00 in0.0 mm 0.00 in0.0 mm
06:02 AM 67.6°F19.8°C 54.9°F12.7°C 63% Calm Calm -- 30.15 in1021.0 mb 0.00 in0.0 mm 0.00 in0.0 mm 0.00 in0.0 mm
06:07 AM 68.4°F20.2°C 55.6°F13.1°C 64% Calm Calm -- 30.15 in1021.0 mb 0.00 in0.0 mm 0.00 in0.0 mm 0.00 in0.0 mm
06:12 AM 69.1°F20.6°C 55.9°F13.3°C 63% Calm Calm -- 30.15 in1021.0 mb 0.00 in0.0 mm 0.00 in0.0 mm 0.00 in0.0 mm
06:18 AM 70.0°F21.1°C 55.9°F13.3°C 61% Calm Calm -- 30.15 in1021.0 mb 0.00 in0.0 mm 0.00 in0.0 mm 0.00 in0.0 mm
06:23 AM 70.2°F21.2°C 56.5°F13.6°C 62% Calm Calm -- 30.15 in1021.0 mb 0.00 in0.0 mm 0.00 in0.0 mm 0.00 in0.0 mm
06:28 AM 70.2°F21.2°C 56.5°F13.6°C 62% Calm Calm -- 30.16 in1021.3 mb 0.00 in0.0 mm 0.00 in0.0 mm 0.00 in0.0 mm
06:33 AM 71.2°F21.8°C 57.0°F13.9°C 61% Calm Calm -- 30.16 in1021.3 mb 0.00 in0.0 mm 0.00 in0.0 mm 0.00 in0.0 mm
06:39 AM 72.1°F22.3°C 56.8°F13.8°C 59% Calm Calm -- 30.15 in1021.0 mb 0.00 in0.0 mm 0.00 in0.0 mm 0.00 in0.0 mm
06:44 AM 72.7°F22.6°C 57.9°F14.4°C 60% Calm Calm -- 30.15 in1021.0 mb 0.00 in0.0 mm 0.00 in0.0 mm 0.00 in0.0 mm
06:49 AM 72.9°F22.7°C 57.6°F14.2°C 59% Calm Calm -- 30.16 in1021.3 mb 0.00 in0.0 mm 0.00 in0.0 mm 0.00 in0.0 mm
06:54 AM 73.9°F23.3°C 58.6°F14.8°C 59% Calm Calm -- 30.16 in1021.3 mb 0.00 in0.0 mm 0.00 in0.0 mm 0.00 in0.0 mm
07:00 AM 76.1°F24.5°C 59.2°F15.1°C 56% Calm Calm -- 30.16 in1021.3 mb 0.00 in0.0 mm 0.00 in0.0 mm 0.00 in0.0 mm
07:05 AM 78.6°F25.9°C 57.7°F14.3°C 49% Calm Calm -- 30.16 in1021.3 mb 0.00 in0.0 mm 0.00 in0.0 mm 0.00 in0.0 mm
07:10 AM 78.4°F25.8°C 57.6°F14.2°C 51% Calm Calm -- 30.16 in1021.3 mb 0.00 in0.0 mm 0.00 in0.0 mm 0.00 in0.0 mm
07:15 AM 78.3°F25.7°C 56.8°F13.8°C 48% Calm Calm -- 30.16 in1021.3 mb 0.00 in0.0 mm 0.00 in0.0 mm 0.00 in0.0 mm
07:21 AM 78.6°F25.9°C 57.2°F14.0°C 46% Calm Calm -- 30.16 in1021.3 mb 0.00 in0.0 mm 0.00 in0.0 mm 0.00 in0.0 mm
07:26 AM 79.7°F26.5°C 56.3°F13.5°C 45% Calm Calm -- 30.16 in1021.3 mb 0.00 in0.0 mm 0.00 in0.0 mm 0.00 in0.0 mm
07:31 AM 80.3°F26.8°C 57.1°F13.9°C 45% Calm Calm -- 30.16 in1021.3 mb 0.00 in0.0 mm 0.00 in0.0 mm 0.00 in0.0 mm
07:36 AM 79.8°F26.6°C 56.0°F13.3°C 44% Calm Calm -- 30.16 in1021.3 mb 0.00 in0.0 mm 0.00 in0.0 mm 0.00 in0.0 mm
07:42 AM 79.3°F26.3°C 55.5°F13.1°C 44% Calm Calm -- 30.16 in1021.3 mb 0.00 in0.0 mm 0.00 in0.0 mm 0.00 in0.0 mm
07:47 AM 79.0°F26.1°C 55.9°F13.3°C 45% Calm Calm -- 30.16 in1021.3 mb 0.00 in0.0 mm 0.00 in0.0 mm 0.00 in0.0 mm
07:52 AM 78.4°F25.8°C 56.0°F13.3°C 46% Calm Calm -- 30.16 in1021.3 mb 0.00 in0.0 mm 0.00 in0.0 mm 0.00 in0.0 mm
07:57 AM 78.7°F25.9°C 55.6°F13.1°C 45% Calm Calm -- 30.17 in1021.7 mb 0.00 in0.0 mm 0.00 in0.0 mm 0.00 in0.0 mm
08:03 AM 78.8°F26.0°C 55.1°F12.8°C 44% Calm Calm -- 30.16 in1021.3 mb 0.00 in0.0 mm 0.00 in0.0 mm 0.00 in0.0 mm
08:08 AM 79.8°F26.6°C 56.6°F13.7°C 45% Calm Calm -- 30.16 in1021.3 mb 0.00 in0.0 mm 0.00 in0.0 mm 0.00 in0.0 mm
08:13 AM 81.4°F27.4°C 56.7°F13.7°C 43% Calm Calm -- 30.16 in1021.3 mb 0.00 in0.0 mm 0.00 in0.0 mm 0.00 in0.0 mm
08:18 AM 82.3°F27.9°C 56.2°F13.4°C 41% Calm Calm -- 30.16 in1021.3 mb 0.00 in0.0 mm 0.00 in0.0 mm 0.00 in0.0 mm
08:24 AM 84.2°F29.0°C 56.5°F13.6°C 39% Calm Calm -- 30.16 in1021.3 mb 0.00 in0.0 mm 0.00 in0.0 mm 0.00 in0.0 mm
08:29 AM 85.8°F29.9°C 57.2°F14.0°C 38% Calm Calm -- 30.15 in1021.0 mb 0.00 in0.0 mm 0.00 in0.0 mm 0.00 in0.0 mm
08:34 AM 85.9°F29.9°C 55.8°F13.2°C 36% Calm Calm -- 30.15 in1021.0 mb 0.00 in0.0 mm 0.00 in0.0 mm 0.00 in0.0 mm
08:39 AM 85.5°F29.7°C 55.4°F13.0°C 36% Calm Calm -- 30.15 in1021.0 mb 0.00 in0.0 mm 0.00 in0.0 mm 0.00 in0.0 mm
08:44 AM 86.3°F30.2°C 56.1°F13.4°C 36% Calm Calm -- 30.15 in1021.0 mb 0.00 in0.0 mm 0.00 in0.0 mm 0.00 in0.0 mm
08:50 AM 86.6°F30.3°C 56.4°F13.6°C 36% Calm Calm -- 30.15 in1021.0 mb 0.00 in0.0 mm 0.00 in0.0 mm 0.00 in0.0 mm
08:55 AM 86.0°F30.0°C 57.3°F14.1°C 38% Calm Calm -- 30.15 in1021.0 mb 0.00 in0.0 mm 0.00 in0.0 mm 0.00 in0.0 mm
09:00 AM 85.8°F29.9°C 57.2°F14.0°C 38% Calm Calm -- 30.15 in1021.0 mb 0.00 in0.0 mm 0.00 in0.0 mm 0.00 in0.0 mm
09:06 AM 86.3°F30.2°C 57.7°F14.3°C 38% Calm Calm -- 30.15 in1021.0 mb 0.00 in0.0 mm 0.00 in0.0 mm 0.00 in0.0 mm
09:11 AM 86.4°F30.2°C 57.0°F13.9°C 37% Calm Calm -- 30.15 in1021.0 mb 0.00 in0.0 mm 0.00 in0.0 mm 0.00 in0.0 mm
09:16 AM 86.7°F30.4°C 57.2°F14.0°C 37% Calm Calm -- 30.15 in1021.0 mb 0.00 in0.0 mm 0.00 in0.0 mm 0.00 in0.0 mm
09:21 AM 87.0°F30.6°C 56.8°F13.8°C 36% Calm Calm -- 30.15 in1021.0 mb 0.00 in0.0 mm 0.00 in0.0 mm 0.00 in0.0 mm
09:27 AM 86.2°F30.1°C 56.8°F13.8°C 37% Calm Calm 3.5 mph5.6 kmh 30.15 in1021.0 mb 0.00 in0.0 mm 0.00 in0.0 mm 0.00 in0.0 mm
09:32 AM 87.0°F30.6°C 56.7°F13.7°C 36% Calm Calm 3.5 mph5.6 kmh 30.15 in1021.0 mb 0.00 in0.0 mm 0.00 in0.0 mm 0.00 in0.0 mm
09:37 AM 87.3°F30.7°C 57.0°F13.9°C 36% Calm Calm -- 30.15 in1021.0 mb 0.00 in0.0 mm 0.00 in0.0 mm 0.00 in0.0 mm
09:42 AM 88.1°F31.2°C 56.1°F13.4°C 34% Calm Calm -- 30.15 in1021.0 mb 0.00 in0.0 mm 0.00 in0.0 mm 0.00 in0.0 mm
09:48 AM 88.2°F31.2°C 55.3°F12.9°C 33% Calm Calm -- 30.15 in1021.0 mb 0.00 in0.0 mm 0.00 in0.0 mm 0.00 in0.0 mm
09:53 AM 87.5°F30.8°C 56.4°F13.6°C 35% Calm Calm -- 30.15 in1021.0 mb 0.00 in0.0 mm 0.00 in0.0 mm 0.00 in0.0 mm
09:58 AM 86.1°F30.1°C 55.9°F13.3°C 36% Calm Calm -- 30.15 in1021.0 mb 0.00 in0.0 mm 0.00 in0.0 mm 0.00 in0.0 mm
10:04 AM 89.1°F31.7°C 56.9°F13.8°C 34% 1.1 mph 1.8 kmh 1.1 mph1.8 kmh 30.15 in1021.0 mb 0.00 in0.0 mm 0.00 in0.0 mm 0.00 in0.0 mm
10:09 AM 89.2°F31.8°C 56.3°F13.5°C 33% Calm Calm 1.1 mph1.8 kmh 30.15 in1021.0 mb 0.00 in0.0 mm 0.00 in0.0 mm 0.00 in0.0 mm
10:14 AM 87.9°F31.1°C 55.1°F12.8°C 33% Calm Calm 1.1 mph1.8 kmh 30.15 in1021.0 mb 0.00 in0.0 mm 0.00 in0.0 mm 0.00 in0.0 mm
10:20 AM 89.6°F32.0°C 56.6°F13.7°C 33% Calm Calm -- 30.15 in1021.0 mb 0.00 in0.0 mm 0.00 in0.0 mm 0.00 in0.0 mm
10:25 AM 90.7°F32.6°C 54.9°F12.7°C 30% Calm Calm -- 30.14 in1020.7 mb 0.00 in0.0 mm 0.00 in0.0 mm 0.00 in0.0 mm
10:30 AM 91.2°F32.9°C 56.2°F13.4°C 31% Calm Calm -- 30.14 in1020.7 mb 0.00 in0.0 mm 0.00 in0.0 mm 0.00 in0.0 mm
10:35 AM 92.3°F33.5°C 55.3°F12.9°C 29% Calm Calm -- 30.14 in1020.7 mb 0.00 in0.0 mm 0.00 in0.0 mm 0.00 in0.0 mm
10:40 AM 90.5°F32.5°C 54.8°F12.7°C 30% Calm Calm -- 30.14 in1020.7 mb 0.00 in0.0 mm 0.00 in0.0 mm 0.00 in0.0 mm
10:46 AM 89.9°F32.2°C 52.4°F11.3°C 28% Calm Calm -- 30.14 in1020.7 mb 0.00 in0.0 mm 0.00 in0.0 mm 0.00 in0.0 mm
10:51 AM 90.9°F32.7°C 53.2°F11.8°C 28% Calm Calm -- 30.14 in1020.7 mb 0.00 in0.0 mm 0.00 in0.0 mm 0.00 in0.0 mm
10:56 AM 89.1°F31.7°C 51.7°F10.9°C 28% Calm Calm -- 30.14 in1020.7 mb 0.00 in0.0 mm 0.00 in0.0 mm 0.00 in0.0 mm
11:01 AM 89.4°F31.9°C 51.0°F10.6°C 27% 2.4 mph NE3.9 kmh NE 2.4 mph3.9 kmh 30.14 in1020.7 mb 0.00 in0.0 mm 0.00 in0.0 mm 0.00 in0.0 mm
11:07 AM 89.3°F31.8°C 51.9°F11.1°C 28% 2.9 mph NNE4.7 kmh NNE 2.9 mph4.7 kmh 30.14 in1020.7 mb 0.00 in0.0 mm 0.00 in0.0 mm 0.00 in0.0 mm
11:12 AM 88.7°F31.5°C 51.3°F10.7°C 28% Calm Calm 2.9 mph4.7 kmh 30.14 in1020.7 mb 0.00 in0.0 mm 0.00 in0.0 mm 0.00 in0.0 mm
11:17 AM 89.9°F32.2°C 51.3°F10.7°C 27% Calm Calm 2.9 mph4.7 kmh 30.14 in1020.7 mb 0.00 in0.0 mm 0.00 in0.0 mm 0.00 in0.0 mm
11:23 AM 92.3°F33.5°C 52.4°F11.3°C 26% Calm Calm 0.2 mph0.3 kmh 30.14 in1020.7 mb 0.00 in0.0 mm 0.00 in0.0 mm 0.00 in0.0 mm
11:28 AM 90.8°F32.7°C 51.1°F10.6°C 26% Calm Calm -- 30.14 in1020.7 mb 0.00 in0.0 mm 0.00 in0.0 mm 0.00 in0.0 mm
11:33 AM 91.2°F32.9°C 51.5°F10.8°C 26% Calm Calm -- 30.14 in1020.7 mb 0.00 in0.0 mm 0.00 in0.0 mm 0.00 in0.0 mm
11:38 AM 91.2°F32.9°C 50.4°F10.2°C 25% Calm Calm -- 30.14 in1020.7 mb 0.00 in0.0 mm 0.00 in0.0 mm 0.00 in0.0 mm
11:43 AM 90.2°F32.3°C 49.5°F9.7°C 25% Calm Calm -- 30.14 in1020.7 mb 0.00 in0.0 mm 0.00 in0.0 mm 0.00 in0.0 mm
11:49 AM 91.0°F32.8°C 49.2°F9.6°C 24% Calm Calm 2.9 mph4.7 kmh 30.14 in1020.7 mb 0.00 in0.0 mm 0.00 in0.0 mm 0.00 in0.0 mm
11:54 AM 92.7°F33.7°C 50.6°F10.3°C 24% Calm Calm 2.9 mph4.7 kmh 30.14 in1020.7 mb 0.00 in0.0 mm 0.00 in0.0 mm 0.00 in0.0 mm
11:59 AM 91.5°F33.1°C 50.7°F10.4°C 25% 3.4 mph NE5.5 kmh NE 21.4 mph34.4 kmh 30.14 in1020.7 mb 0.00 in0.0 mm 0.00 in0.0 mm 0.00 in0.0 mm
12:04 PM 89.1°F31.7°C 50.6°F10.3°C 27% 1.1 mph NE1.8 kmh NE 21.4 mph34.4 kmh 30.14 in1020.7 mb 0.00 in0.0 mm 0.00 in0.0 mm 0.00 in0.0 mm
12:10 PM 89.8°F32.1°C 50.3°F10.2°C 26% Calm Calm 18.5 mph29.8 kmh 30.13 in1020.3 mb 0.00 in0.0 mm 0.00 in0.0 mm 0.00 in0.0 mm
12:15 PM 90.8°F32.7°C 50.0°F10.0°C 25% Calm Calm 2.4 mph3.9 kmh 30.13 in1020.3 mb 0.00 in0.0 mm 0.00 in0.0 mm 0.00 in0.0 mm
12:20 PM 88.0°F31.1°C 48.8°F9.3°C 26% 5.9 mph NE9.5 kmh NE 11.4 mph18.3 kmh 30.13 in1020.3 mb 0.00 in0.0 mm 0.00 in0.0 mm 0.00 in0.0 mm
12:25 PM 87.7°F30.9°C 49.5°F9.7°C 27% Calm Calm 18.7 mph30.1 kmh 30.13 in1020.3 mb 0.00 in0.0 mm 0.00 in0.0 mm 0.00 in0.0 mm
12:31 PM 88.6°F31.4°C 49.2°F9.6°C 26% 0.2 mph SSE0.3 kmh SSE 18.7 mph30.1 kmh 30.13 in1020.3 mb 0.00 in0.0 mm 0.00 in0.0 mm 0.00 in0.0 mm
12:36 PM 90.1°F32.3°C 49.5°F9.7°C 25% Calm Calm 7.8 mph12.6 kmh 30.13 in1020.3 mb 0.00 in0.0 mm 0.00 in0.0 mm 0.00 in0.0 mm
12:41 PM 91.7°F33.2°C 49.8°F9.9°C 24% Calm Calm -- 30.12 in1020.0 mb 0.00 in0.0 mm 0.00 in0.0 mm 0.00 in0.0 mm
12:46 PM 92.4°F33.6°C 49.2°F9.6°C 23% Calm Calm -- 30.12 in1020.0 mb 0.00 in0.0 mm 0.00 in0.0 mm 0.00 in0.0 mm
12:52 PM 92.6°F33.7°C 51.6°F10.9°C 25% Calm Calm -- 30.12 in1020.0 mb 0.00 in0.0 mm 0.00 in0.0 mm 0.00 in0.0 mm
12:57 PM 92.6°F33.7°C 49.4°F9.7°C 23% Calm Calm -- 30.12 in1020.0 mb 0.00 in0.0 mm 0.00 in0.0 mm 0.00 in0.0 mm
01:03 PM 89.9°F32.2°C 49.3°F9.6°C 25% Calm Calm -- 30.11 in1019.6 mb 0.00 in0.0 mm 0.00 in0.0 mm 0.00 in0.0 mm
01:08 PM 90.3°F32.4°C 49.7°F9.8°C 25% Calm Calm -- 30.11 in1019.6 mb 0.00 in0.0 mm 0.00 in0.0 mm 0.00 in0.0 mm
01:13 PM 91.4°F33.0°C 49.5°F9.7°C 24% Calm Calm -- 30.11 in1019.6 mb 0.00 in0.0 mm 0.00 in0.0 mm 0.00 in0.0 mm
01:19 PM 90.6°F32.6°C 49.9°F9.9°C 25% Calm Calm -- 30.10 in1019.3 mb 0.00 in0.0 mm 0.00 in0.0 mm 0.00 in0.0 mm
01:24 PM 88.9°F31.6°C 48.4°F9.1°C 25% 3.2 mph SSW5.1 kmh SSW 17.2 mph27.7 kmh 30.10 in1019.3 mb 0.00 in0.0 mm 0.00 in0.0 mm 0.00 in0.0 mm
01:29 PM 90.0°F32.2°C 51.4°F10.8°C 27% Calm Calm 17.2 mph27.7 kmh 30.10 in1019.3 mb 0.00 in0.0 mm 0.00 in0.0 mm 0.00 in0.0 mm
01:34 PM 91.5°F33.1°C 49.6°F9.8°C 24% Calm Calm -- 30.10 in1019.3 mb 0.00 in0.0 mm 0.00 in0.0 mm 0.00 in0.0 mm
01:40 PM 92.0°F33.3°C 48.9°F9.4°C 23% Calm Calm -- 30.09 in1019.0 mb 0.00 in0.0 mm 0.00 in0.0 mm 0.00 in0.0 mm
01:45 PM 90.8°F32.7°C 45.5°F7.5°C 21% Calm Calm -- 30.10 in1019.3 mb 0.00 in0.0 mm 0.00 in0.0 mm 0.00 in0.0 mm
01:50 PM 91.0°F32.8°C 48.0°F8.9°C 23% Calm Calm -- 30.10 in1019.3 mb 0.00 in0.0 mm 0.00 in0.0 mm 0.00 in0.0 mm
01:55 PM 91.8°F33.2°C 46.3°F7.9°C 21% Calm Calm -- 30.09 in1019.0 mb 0.00 in0.0 mm 0.00 in0.0 mm 0.00 in0.0 mm
02:01 PM 91.1°F32.8°C 48.1°F8.9°C 23% Calm Calm -- 30.09 in1019.0 mb 0.00 in0.0 mm 0.00 in0.0 mm 0.00 in0.0 mm
02:06 PM 94.1°F34.5°C 48.2°F9.0°C 21% Calm Calm -- 30.09 in1019.0 mb 0.00 in0.0 mm 0.00 in0.0 mm 0.00 in0.0 mm
02:11 PM 93.0°F33.9°C 47.3°F8.5°C 21% Calm Calm -- 30.09 in1019.0 mb 0.00 in0.0 mm 0.00 in0.0 mm 0.00 in0.0 mm
02:16 PM 90.4°F32.4°C 48.6°F9.2°C 24% Calm Calm -- 30.08 in1018.6 mb 0.00 in0.0 mm 0.00 in0.0 mm 0.00 in0.0 mm
02:22 PM 92.5°F33.6°C 49.3°F9.6°C 23% 2.6 mph ENE4.2 kmh ENE 2.6 mph4.2 kmh 30.08 in1018.6 mb 0.00 in0.0 mm 0.00 in0.0 mm 0.00 in0.0 mm
02:27 PM 92.1°F33.4°C 47.8°F8.8°C 22% Calm Calm 2.6 mph4.2 kmh 30.07 in1018.3 mb 0.00 in0.0 mm 0.00 in0.0 mm 0.00 in0.0 mm
02:32 PM 91.9°F33.3°C 48.8°F9.3°C 23% 0.7 mph SE1.1 kmh SE 17.0 mph27.4 kmh 30.07 in1018.3 mb 0.00 in0.0 mm 0.00 in0.0 mm 0.00 in0.0 mm
02:37 PM 92.3°F33.5°C 49.1°F9.5°C 23% Calm Calm 17.0 mph27.4 kmh 30.07 in1018.3 mb 0.00 in0.0 mm 0.00 in0.0 mm 0.00 in0.0 mm
02:43 PM 91.7°F33.2°C 48.6°F9.2°C 23% Calm Calm 0.2 mph0.3 kmh 30.07 in1018.3 mb 0.00 in0.0 mm 0.00 in0.0 mm 0.00 in0.0 mm
02:48 PM 93.1°F33.9°C 47.4°F8.6°C 21% Calm Calm -- 30.07 in1018.3 mb 0.00 in0.0 mm 0.00 in0.0 mm 0.00 in0.0 mm
02:53 PM 92.5°F33.6°C 49.3°F9.6°C 23% Calm Calm -- 30.07 in1018.3 mb 0.00 in0.0 mm 0.00 in0.0 mm 0.00 in0.0 mm
02:58 PM 93.1°F33.9°C 49.7°F9.8°C 23% 2.2 mph 3.5 kmh 2.2 mph3.5 kmh 30.07 in1018.3 mb 0.00 in0.0 mm 0.00 in0.0 mm 0.00 in0.0 mm
03:04 PM 92.2°F33.4°C 49.1°F9.5°C 23% 3.8 mph 6.1 kmh 3.8 mph6.1 kmh 30.07 in1018.3 mb 0.00 in0.0 mm 0.00 in0.0 mm 0.00 in0.0 mm
03:09 PM 91.7°F33.2°C 49.7°F9.8°C 24% Calm Calm 3.8 mph6.1 kmh 30.07 in1018.3 mb 0.00 in0.0 mm 0.00 in0.0 mm 0.00 in0.0 mm
03:14 PM 91.4°F33.0°C 49.5°F9.7°C 24% 3.1 mph NNE5.0 kmh NNE 17.0 mph27.4 kmh 30.07 in1018.3 mb 0.00 in0.0 mm 0.00 in0.0 mm 0.00 in0.0 mm
03:19 PM 94.0°F34.4°C 50.5°F10.3°C 23% Calm Calm 17.0 mph27.4 kmh 30.07 in1018.3 mb 0.00 in0.0 mm 0.00 in0.0 mm 0.00 in0.0 mm
03:25 PM 95.0°F35.0°C 48.9°F9.4°C 21% Calm Calm 6.7 mph10.8 kmh 30.06 in1017.9 mb 0.00 in0.0 mm 0.00 in0.0 mm 0.00 in0.0 mm
03:30 PM 94.4°F34.7°C 48.4°F9.1°C 21% Calm Calm -- 30.06 in1017.9 mb 0.00 in0.0 mm 0.00 in0.0 mm 0.00 in0.0 mm
03:35 PM 93.6°F34.2°C 50.2°F10.1°C 23% Calm Calm -- 30.06 in1017.9 mb 0.00 in0.0 mm 0.00 in0.0 mm 0.00 in0.0 mm
03:40 PM 93.5°F34.2°C 47.7°F8.7°C 21% 4.2 mph NNE6.8 kmh NNE 8.0 mph12.9 kmh 30.05 in1017.6 mb 0.00 in0.0 mm 0.00 in0.0 mm 0.00 in0.0 mm
03:46 PM 94.5°F34.7°C 48.6°F9.2°C 21% 0.4 mph SE0.6 kmh SE 8.2 mph13.2 kmh 30.05 in1017.6 mb 0.00 in0.0 mm 0.00 in0.0 mm 0.00 in0.0 mm
03:51 PM 95.8°F35.4°C 49.6°F9.8°C 21% 2.4 mph SSE3.9 kmh SSE 9.3 mph15.0 kmh 30.05 in1017.6 mb 0.00 in0.0 mm 0.00 in0.0 mm 0.00 in0.0 mm
03:56 PM 93.6°F34.2°C 51.3°F10.7°C 24% 6.8 mph S10.9 kmh S 13.6 mph21.9 kmh 30.05 in1017.6 mb 0.00 in0.0 mm 0.00 in0.0 mm 0.00 in0.0 mm
04:02 PM 92.6°F33.7°C 51.6°F10.9°C 25% 7.0 mph S11.3 kmh S 22.1 mph35.6 kmh 30.05 in1017.6 mb 0.00 in0.0 mm 0.00 in0.0 mm 0.00 in0.0 mm
04:07 PM 92.1°F33.4°C 50.0°F10.0°C 24% 2.5 mph SSE4.0 kmh SSE 22.1 mph35.6 kmh 30.04 in1017.3 mb 0.00 in0.0 mm 0.00 in0.0 mm 0.00 in0.0 mm
04:12 PM 91.3°F32.9°C 49.4°F9.7°C 24% 1.1 mph SE1.8 kmh SE 18.7 mph30.1 kmh 30.05 in1017.6 mb 0.00 in0.0 mm 0.00 in0.0 mm 0.00 in0.0 mm
04:17 PM 91.0°F32.8°C 50.2°F10.1°C 25% 2.4 mph SSE3.9 kmh SSE 5.1 mph8.2 kmh 30.04 in1017.3 mb 0.00 in0.0 mm 0.00 in0.0 mm 0.00 in0.0 mm
04:23 PM 90.9°F32.7°C 50.2°F10.1°C 25% 1.7 mph SSW2.7 kmh SSW 2.4 mph3.9 kmh 30.04 in1017.3 mb 0.00 in0.0 mm 0.00 in0.0 mm 0.00 in0.0 mm
04:28 PM 90.8°F32.7°C 50.1°F10.1°C 25% 1.3 mph S2.1 kmh S 2.4 mph3.9 kmh 30.04 in1017.3 mb 0.00 in0.0 mm 0.00 in0.0 mm 0.00 in0.0 mm
04:33 PM 91.8°F33.2°C 50.9°F10.5°C 25% Calm Calm 1.3 mph2.1 kmh 30.05 in1017.6 mb 0.00 in0.0 mm 0.00 in0.0 mm 0.00 in0.0 mm
04:38 PM 90.6°F32.6°C 55.8°F13.2°C 31% 1.3 mph S2.1 kmh S 1.3 mph2.1 kmh 30.06 in1017.9 mb 0.00 in0.0 mm 0.00 in0.0 mm 0.00 in0.0 mm
04:44 PM 87.0°F30.6°C 56.7°F13.7°C 36% 4.3 mph SW6.9 kmh SW 13.1 mph21.1 kmh 30.06 in1017.9 mb 0.00 in0.0 mm 0.00 in0.0 mm 0.00 in0.0 mm
04:49 PM 83.9°F28.8°C 59.0°F15.0°C 43% 7.2 mph WSW11.6 kmh WSW 15.6 mph25.1 kmh 30.07 in1018.3 mb 0.00 in0.0 mm 0.00 in0.0 mm 0.00 in0.0 mm
04:54 PM 81.0°F27.2°C 62.4°F16.9°C 53% 4.6 mph WSW7.4 kmh WSW 19.0 mph30.6 kmh 30.06 in1017.9 mb 0.00 in0.0 mm 0.00 in0.0 mm 0.00 in0.0 mm
04:59 PM 79.9°F26.6°C 62.5°F16.9°C 55% 1.5 mph SW2.4 kmh SW 19.0 mph30.6 kmh 30.05 in1017.6 mb 0.00 in0.0 mm 0.00 in0.0 mm 0.00 in0.0 mm
05:05 PM 79.9°F26.6°C 60.6°F15.9°C 52% 1.5 mph WSW2.4 kmh WSW 2.4 mph3.9 kmh 30.05 in1017.6 mb 0.00 in0.0 mm 0.00 in0.0 mm 0.00 in0.0 mm
05:10 PM 80.4°F26.9°C 58.8°F14.9°C 48% 1.7 mph WSW2.7 kmh WSW 1.7 mph2.7 kmh 30.05 in1017.6 mb 0.00 in0.0 mm 0.00 in0.0 mm 0.00 in0.0 mm
05:15 PM 81.1°F27.3°C 58.8°F14.9°C 47% 1.1 mph WSW1.8 kmh WSW 1.7 mph2.7 kmh 30.05 in1017.6 mb 0.00 in0.0 mm 0.00 in0.0 mm 0.00 in0.0 mm
05:20 PM 81.7°F27.6°C 58.1°F14.5°C 46% 1.7 mph WSW2.7 kmh WSW 1.7 mph2.7 kmh 30.05 in1017.6 mb 0.00 in0.0 mm 0.00 in0.0 mm 0.00 in0.0 mm
05:26 PM 81.3°F27.4°C 58.5°F14.7°C 46% 2.7 mph WSW4.3 kmh WSW 24.3 mph39.1 kmh 30.06 in1017.9 mb 0.00 in0.0 mm 0.00 in0.0 mm 0.00 in0.0 mm
05:31 PM 80.8°F27.1°C 58.5°F14.7°C 47% 3.3 mph SW5.3 kmh SW 24.3 mph39.1 kmh 30.06 in1017.9 mb 0.00 in0.0 mm 0.00 in0.0 mm 0.00 in0.0 mm
05:36 PM 80.4°F26.9°C 58.1°F14.5°C 47% Calm Calm 3.3 mph5.3 kmh 30.07 in1018.3 mb 0.00 in0.0 mm 0.00 in0.0 mm 0.00 in0.0 mm
05:41 PM 80.4°F26.9°C 58.1°F14.5°C 50% Calm Calm -- 30.07 in1018.3 mb 0.00 in0.0 mm 0.00 in0.0 mm 0.00 in0.0 mm
05:47 PM 79.0°F26.1°C 61.3°F16.3°C 55% 3.1 mph S5.0 kmh S 3.1 mph5.0 kmh 30.08 in1018.6 mb 0.00 in0.0 mm 0.00 in0.0 mm 0.00 in0.0 mm
05:52 PM 77.7°F25.4°C 59.5°F15.3°C 54% 7.7 mph S12.4 kmh S 25.0 mph40.2 kmh 30.07 in1018.3 mb 0.00 in0.0 mm 0.00 in0.0 mm 0.00 in0.0 mm
05:57 PM 77.9°F25.5°C 56.5°F13.6°C 48% 6.8 mph SSW10.9 kmh SSW 25.9 mph41.7 kmh 30.07 in1018.3 mb 0.00 in0.0 mm 0.00 in0.0 mm 0.00 in0.0 mm
06:02 PM 76.6°F24.8°C 59.2°F15.1°C 55% 1.3 mph WSW2.1 kmh WSW 25.9 mph41.7 kmh 30.07 in1018.3 mb 0.00 in0.0 mm 0.00 in0.0 mm 0.00 in0.0 mm
06:08 PM 75.9°F24.4°C 57.9°F14.4°C 56% 1.5 mph WSW2.4 kmh WSW 16.3 mph26.2 kmh 30.06 in1017.9 mb 0.00 in0.0 mm 0.00 in0.0 mm 0.00 in0.0 mm
06:13 PM 76.3°F24.6°C 58.3°F14.6°C 53% Calm Calm 1.5 mph2.4 kmh 30.06 in1017.9 mb 0.00 in0.0 mm 0.00 in0.0 mm 0.00 in0.0 mm
06:18 PM 75.9°F24.4°C 58.5°F14.7°C 55% 1.3 mph SW2.1 kmh SW 1.3 mph2.1 kmh 30.07 in1018.3 mb 0.00 in0.0 mm 0.00 in0.0 mm 0.00 in0.0 mm
06:23 PM 75.2°F24.0°C 57.9°F14.4°C 55% 3.1 mph WSW5.0 kmh WSW 3.1 mph5.0 kmh 30.07 in1018.3 mb 0.00 in0.0 mm 0.00 in0.0 mm 0.00 in0.0 mm
06:29 PM 75.0°F23.9°C 58.1°F14.5°C 56% 0.8 mph SW1.3 kmh SW 3.1 mph5.0 kmh 30.07 in1018.3 mb 0.00 in0.0 mm 0.00 in0.0 mm 0.00 in0.0 mm
06:34 PM 75.7°F24.3°C 58.3°F14.6°C 55% 2.7 mph SW4.3 kmh SW 6.9 mph11.1 kmh 30.07 in1018.3 mb 0.00 in0.0 mm 0.00 in0.0 mm 0.00 in0.0 mm
06:39 PM 75.7°F24.3°C 58.3°F14.6°C 54% 1.3 mph W2.1 kmh W 6.9 mph11.1 kmh 30.07 in1018.3 mb 0.00 in0.0 mm 0.00 in0.0 mm 0.00 in0.0 mm
06:44 PM 76.6°F24.8°C 58.1°F14.5°C 53% Calm Calm 1.5 mph2.4 kmh 30.08 in1018.6 mb 0.00 in0.0 mm 0.00 in0.0 mm 0.00 in0.0 mm
06:49 PM 76.6°F24.8°C 58.1°F14.5°C 53% Calm Calm 1.3 mph2.1 kmh 30.08 in1018.6 mb 0.00 in0.0 mm 0.00 in0.0 mm 0.00 in0.0 mm
06:55 PM 76.3°F24.6°C 57.7°F14.3°C 54% 2.0 mph SW3.2 kmh SW 2.0 mph3.2 kmh 30.08 in1018.6 mb 0.00 in0.0 mm 0.00 in0.0 mm 0.00 in0.0 mm
07:00 PM 75.7°F24.3°C 58.3°F14.6°C 55% Calm Calm 2.0 mph3.2 kmh 30.08 in1018.6 mb 0.00 in0.0 mm 0.00 in0.0 mm 0.00 in0.0 mm
07:06 PM 75.0°F23.9°C 57.7°F14.3°C 55% Calm Calm -- 30.08 in1018.6 mb 0.00 in0.0 mm 0.00 in0.0 mm 0.00 in0.0 mm
07:11 PM 75.2°F24.0°C 57.4°F14.1°C 54% Calm Calm -- 30.08 in1018.6 mb 0.00 in0.0 mm 0.00 in0.0 mm 0.00 in0.0 mm
07:16 PM 75.9°F24.4°C 57.6°F14.2°C 53% Calm Calm -- 30.08 in1018.6 mb 0.00 in0.0 mm 0.00 in0.0 mm 0.00 in0.0 mm
07:22 PM 76.3°F24.6°C 57.4°F14.1°C 52% Calm Calm -- 30.08 in1018.6 mb 0.00 in0.0 mm 0.00 in0.0 mm 0.00 in0.0 mm
07:27 PM 77.5°F25.3°C 55.6°F13.1°C 47% Calm Calm -- 30.09 in1019.0 mb 0.00 in0.0 mm 0.00 in0.0 mm 0.00 in0.0 mm
07:32 PM 79.3°F26.3°C 55.4°F13.0°C 44% 3.4 mph NW5.5 kmh NW 8.7 mph14.0 kmh 30.09 in1019.0 mb 0.00 in0.0 mm 0.00 in0.0 mm 0.00 in0.0 mm
07:37 PM 80.2°F26.8°C 55.6°F13.1°C 43% 0.4 mph WNW0.6 kmh WNW 13.8 mph22.2 kmh 30.09 in1019.0 mb 0.00 in0.0 mm 0.00 in0.0 mm 0.00 in0.0 mm
07:43 PM 80.2°F26.8°C 56.1°F13.4°C 44% 3.6 mph WSW5.8 kmh WSW 13.8 mph22.2 kmh 30.09 in1019.0 mb 0.00 in0.0 mm 0.00 in0.0 mm 0.00 in0.0 mm
07:48 PM 79.9°F26.6°C 55.9°F13.3°C 44% 0.8 mph WNW1.3 kmh WNW 19.9 mph32.0 kmh 30.09 in1019.0 mb 0.00 in0.0 mm 0.00 in0.0 mm 0.00 in0.0 mm
07:53 PM 79.3°F26.3°C 56.7°F13.7°C 46% 6.0 mph W9.7 kmh W 20.3 mph32.7 kmh 30.09 in1019.0 mb 0.00 in0.0 mm 0.00 in0.0 mm 0.00 in0.0 mm
07:58 PM 79.2°F26.2°C 57.0°F13.9°C 47% 2.1 mph WSW3.4 kmh WSW 20.3 mph32.7 kmh 30.09 in1019.0 mb 0.00 in0.0 mm 0.00 in0.0 mm 0.00 in0.0 mm
08:04 PM 78.4°F25.8°C 57.0°F13.9°C 48% 2.6 mph W4.2 kmh W 17.4 mph28.0 kmh 30.09 in1019.0 mb 0.00 in0.0 mm 0.00 in0.0 mm 0.00 in0.0 mm
08:09 PM 78.1°F25.6°C 57.4°F14.1°C 49% Calm Calm 14.7 mph23.7 kmh 30.09 in1019.0 mb 0.00 in0.0 mm 0.00 in0.0 mm 0.00 in0.0 mm
08:14 PM 78.1°F25.6°C 56.7°F13.7°C 48% 2.6 mph W4.2 kmh W 12.7 mph20.4 kmh 30.09 in1019.0 mb 0.00 in0.0 mm 0.00 in0.0 mm 0.00 in0.0 mm
08:19 PM 78.1°F25.6°C 56.7°F13.7°C 48% 1.3 mph W2.1 kmh W 18.7 mph30.1 kmh 30.10 in1019.3 mb 0.00 in0.0 mm 0.00 in0.0 mm 0.00 in0.0 mm
08:25 PM 78.4°F25.8°C 56.5°F13.6°C 47% 1.3 mph SW2.1 kmh SW 18.3 mph29.5 kmh 30.10 in1019.3 mb 0.00 in0.0 mm 0.00 in0.0 mm 0.00 in0.0 mm
08:30 PM 78.4°F25.8°C 55.8°F13.2°C 46% 2.9 mph SW4.7 kmh SW 13.8 mph22.2 kmh 30.10 in1019.3 mb 0.00 in0.0 mm 0.00 in0.0 mm 0.00 in0.0 mm
08:35 PM 78.6°F25.9°C 55.9°F13.3°C 46% 1.1 mph W1.8 kmh W 13.8 mph22.2 kmh 30.10 in1019.3 mb 0.00 in0.0 mm 0.00 in0.0 mm 0.00 in0.0 mm
08:40 PM 79.0°F26.1°C 55.6°F13.1°C 45% 1.7 mph W2.7 kmh W 1.7 mph2.7 kmh 30.09 in1019.0 mb 0.00 in0.0 mm 0.00 in0.0 mm 0.00 in0.0 mm
08:46 PM 79.0°F26.1°C 55.6°F13.1°C 45% Calm Calm 3.1 mph5.0 kmh 30.09 in1019.0 mb 0.00 in0.0 mm 0.00 in0.0 mm 0.00 in0.0 mm
08:51 PM 79.2°F26.2°C 55.2°F12.9°C 44% 2.5 mph WSW4.0 kmh WSW 4.0 mph6.4 kmh 30.09 in1019.0 mb 0.00 in0.0 mm 0.00 in0.0 mm 0.00 in0.0 mm
08:56 PM 79.3°F26.3°C 55.4°F13.0°C 44% Calm Calm 4.0 mph6.4 kmh 30.10 in1019.3 mb 0.00 in0.0 mm 0.00 in0.0 mm 0.00 in0.0 mm
09:01 PM 79.3°F26.3°C 55.4°F13.0°C 44% Calm Calm 2.0 mph3.2 kmh 30.10 in1019.3 mb 0.00 in0.0 mm 0.00 in0.0 mm 0.00 in0.0 mm
09:07 PM 79.7°F26.5°C 55.0°F12.8°C 43% Calm Calm -- 30.10 in1019.3 mb 0.00 in0.0 mm 0.00 in0.0 mm 0.00 in0.0 mm
09:12 PM 79.9°F26.6°C 55.2°F12.9°C 43% Calm Calm -- 30.11 in1019.6 mb 0.00 in0.0 mm 0.00 in0.0 mm 0.00 in0.0 mm
09:19 PM 79.7°F26.5°C 55.8°F13.2°C 44% 4.4 mph W7.1 kmh W 4.4 mph7.1 kmh 30.12 in1020.0 mb 0.00 in0.0 mm 0.00 in0.0 mm 0.00 in0.0 mm
09:24 PM 79.5°F26.4°C 55.6°F13.1°C 44% 1.8 mph WNW2.9 kmh WNW 4.4 mph7.1 kmh 30.12 in1020.0 mb 0.00 in0.0 mm 0.00 in0.0 mm 0.00 in0.0 mm
09:30 PM 79.5°F26.4°C 55.6°F13.1°C 44% 3.4 mph WNW5.5 kmh WNW 4.0 mph6.4 kmh 30.12 in1020.0 mb 0.00 in0.0 mm 0.00 in0.0 mm 0.00 in0.0 mm
09:35 PM 79.3°F26.3°C 55.4°F13.0°C 44% 1.5 mph W2.4 kmh W 4.0 mph6.4 kmh 30.12 in1020.0 mb 0.00 in0.0 mm 0.00 in0.0 mm 0.00 in0.0 mm
09:40 PM 79.5°F26.4°C 55.6°F13.1°C 44% 4.4 mph NW7.1 kmh NW 4.4 mph7.1 kmh 30.12 in1020.0 mb 0.00 in0.0 mm 0.00 in0.0 mm 0.00 in0.0 mm
09:45 PM 79.7°F26.5°C 55.8°F13.2°C 44% Calm Calm 4.4 mph7.1 kmh 30.12 in1020.0 mb 0.00 in0.0 mm 0.00 in0.0 mm 0.00 in0.0 mm
09:51 PM 79.7°F26.5°C 55.8°F13.2°C 44% Calm Calm 4.4 mph7.1 kmh 30.12 in1020.0 mb 0.00 in0.0 mm 0.00 in0.0 mm 0.00 in0.0 mm
09:56 PM 79.7°F26.5°C 55.8°F13.2°C 44% 5.3 mph W8.5 kmh W 20.1 mph32.3 kmh 30.12 in1020.0 mb 0.00 in0.0 mm 0.00 in0.0 mm 0.00 in0.0 mm
10:01 PM 79.5°F26.4°C 55.6°F13.1°C 44% 0.4 mph W0.6 kmh W 20.1 mph32.3 kmh 30.13 in1020.3 mb 0.00 in0.0 mm 0.00 in0.0 mm 0.00 in0.0 mm
10:06 PM 79.5°F26.4°C 55.6°F13.1°C 44% 1.1 mph W1.8 kmh W 16.3 mph26.2 kmh 30.13 in1020.3 mb 0.00 in0.0 mm 0.00 in0.0 mm 0.00 in0.0 mm
10:12 PM 79.5°F26.4°C 55.6°F13.1°C 44% 1.8 mph WSW2.9 kmh WSW 27.2 mph43.8 kmh 30.13 in1020.3 mb 0.00 in0.0 mm 0.00 in0.0 mm 0.00 in0.0 mm
10:17 PM 79.3°F26.3°C 55.4°F13.0°C 44% Calm Calm 27.2 mph43.8 kmh 30.13 in1020.3 mb 0.00 in0.0 mm 0.00 in0.0 mm 0.00 in0.0 mm
10:22 PM 79.2°F26.2°C 55.2°F12.9°C 44% 2.4 mph W3.9 kmh W 2.6 mph4.2 kmh 30.13 in1020.3 mb 0.00 in0.0 mm 0.00 in0.0 mm 0.00 in0.0 mm
10:27 PM 79.2°F26.2°C 55.2°F12.9°C 44% 1.1 mph W1.8 kmh W 11.1 mph17.9 kmh 30.13 in1020.3 mb 0.00 in0.0 mm 0.00 in0.0 mm 0.00 in0.0 mm
10:33 PM 79.0°F26.1°C 55.6°F13.1°C 45% 3.2 mph W5.1 kmh W 18.3 mph29.5 kmh 30.13 in1020.3 mb 0.00 in0.0 mm 0.00 in0.0 mm 0.00 in0.0 mm
10:38 PM 79.0°F26.1°C 55.6°F13.1°C 45% 1.3 mph WNW2.1 kmh WNW 18.3 mph29.5 kmh 30.12 in1020.0 mb 0.00 in0.0 mm 0.00 in0.0 mm 0.00 in0.0 mm
10:43 PM 78.6°F25.9°C 55.4°F13.0°C 45% Calm Calm 17.2 mph27.7 kmh 30.12 in1020.0 mb 0.00 in0.0 mm 0.00 in0.0 mm 0.00 in0.0 mm
10:48 PM 78.6°F25.9°C 55.4°F13.0°C 45% 2.9 mph W4.7 kmh W 17.2 mph27.7 kmh 30.12 in1020.0 mb 0.00 in0.0 mm 0.00 in0.0 mm 0.00 in0.0 mm
10:54 PM 78.4°F25.8°C 55.8°F13.2°C 46% 2.0 mph NW3.2 kmh NW 2.9 mph4.7 kmh 30.12 in1020.0 mb 0.00 in0.0 mm 0.00 in0.0 mm 0.00 in0.0 mm
10:59 PM 78.4°F25.8°C 55.8°F13.2°C 46% Calm Calm 2.0 mph3.2 kmh 30.12 in1020.0 mb 0.00 in0.0 mm 0.00 in0.0 mm 0.00 in0.0 mm
11:04 PM 78.1°F25.6°C 56.1°F13.4°C 47% Calm Calm 2.0 mph3.2 kmh 30.12 in1020.0 mb 0.00 in0.0 mm 0.00 in0.0 mm 0.00 in0.0 mm
11:09 PM 77.7°F25.4°C 56.3°F13.5°C 48% 1.1 mph NW1.8 kmh NW 1.1 mph1.8 kmh 30.12 in1020.0 mb 0.00 in0.0 mm 0.00 in0.0 mm 0.00 in0.0 mm
11:15 PM 77.7°F25.4°C 56.3°F13.5°C 47% 1.1 mph WNW1.8 kmh WNW 1.1 mph1.8 kmh 30.12 in1020.0 mb 0.00 in0.0 mm 0.00 in0.0 mm 0.00 in0.0 mm
11:20 PM 77.5°F25.3°C 56.1°F13.4°C 48% Calm Calm 1.1 mph1.8 kmh 30.12 in1020.0 mb 0.00 in0.0 mm 0.00 in0.0 mm 0.00 in0.0 mm
11:25 PM 77.2°F25.1°C 56.5°F13.6°C 49% Calm Calm -- 30.12 in1020.0 mb 0.00 in0.0 mm 0.00 in0.0 mm 0.00 in0.0 mm
11:30 PM 77.2°F25.1°C 56.5°F13.6°C 50% Calm Calm -- 30.12 in1020.0 mb 0.00 in0.0 mm 0.00 in0.0 mm 0.00 in0.0 mm
11:36 PM 77.0°F25.0°C 57.0°F13.9°C 50% Calm Calm -- 30.12 in1020.0 mb 0.00 in0.0 mm 0.00 in0.0 mm 0.00 in0.0 mm
11:41 PM 76.8°F24.9°C 56.8°F13.8°C 51% Calm Calm -- 30.12 in1020.0 mb 0.00 in0.0 mm 0.00 in0.0 mm 0.00 in0.0 mm
11:46 PM 76.8°F24.9°C 56.8°F13.8°C 51% Calm Calm -- 30.12 in1020.0 mb 0.00 in0.0 mm 0.00 in0.0 mm 0.00 in0.0 mm
11:51 PM 76.6°F24.8°C 57.2°F14.0°C 51% Calm Calm -- 30.12 in1020.0 mb 0.00 in0.0 mm 0.00 in0.0 mm 0.00 in0.0 mm
11:57 PM 76.6°F24.8°C 57.2°F14.0°C 51% Calm Calm -- 30.12 in1020.0 mb 0.00 in0.0 mm 0.00 in0.0 mm 0.00 in0.0 mm